Time;durP1;ratioP1;P1;durP2;ratioP2;P2;SDS_P1;SDS_P2;PMS_P1;PMS_P2;Temp;Humidity;BMP_temperature;BMP_pressure;BME280_temperature;BME280_humidity;BME280_pressure;Samples;Min_cycle;Max_cycle;Signal;HPM_P1;HPM_P2
2023/03/24 00:00:12;;;;;;;;;;;;;;;;;;1032505;28;2675;-53
2023/03/24 00:01:03;;;;;;;;;;;;;;;;;;1033659;28;4083;-51
2023/03/24 00:01:34;;;;;;;;;;;;;;;;;;1032386;28;4136;-52
2023/03/24 00:02:05;;;;;;;;;;;;;;;;;;1032577;28;2562;-51
2023/03/24 00:02:40;;;;;;;;;;;;;;;;;;1032724;28;4046;-51
2023/03/24 00:03:11;;;;;;;;;;;;;;;;;;1034973;28;1754;-55
2023/03/24 00:03:44;;;;;;;;;;;;;;;;;;1032342;28;3973;-50
2023/03/24 00:04:15;;;;;;;;;;;;;;;;;;1035148;28;2810;-52
2023/03/24 00:04:49;;;;;;;;;;;;;;;;;;1033076;28;4454;-53
2023/03/24 00:05:20;;;;;;;;;;;;;;;;;;1032052;28;1849;-51
2023/03/24 00:05:57;;;;;;;;;;;;;;;;;;1032088;28;4118;-55
2023/03/24 00:06:27;;;;;;;;;;;;;;;;;;1031815;28;3923;-50
2023/03/24 00:07:00;;;;;;;;;;;;;;;;;;1033361;28;1680;-53
2023/03/24 00:07:32;;;;;;;;;;;;;;;;;;1032654;28;4103;-54
2023/03/24 00:08:03;;;;;;;;;;;;;;;;;;1032313;28;3160;-53
2023/03/24 00:08:35;;;;;;;;;;;;;;;;;;1033278;28;4116;-51
2023/03/24 00:09:05;;;;;;;;;;;;;;;;;;1035095;28;3156;-53
2023/03/24 00:09:36;;;;;;;;;;;;;;;;;;1032332;28;4229;-55
2023/03/24 00:10:09;;;;;;;;;;;;;;;;;;1034189;28;2078;-53
2023/03/24 00:10:41;;;;;;;;;;;;;;;;;;1032654;28;3769;-54
2023/03/24 00:11:11;;;;;;;;;;;;;;;;;;1033377;28;2724;-53
2023/03/24 00:11:42;;;;;;;;;;;;;;;;;;1030576;28;3969;-53
2023/03/24 00:12:12;;;;;;;;;;;;;;;;;;1034325;28;1415;-52
2023/03/24 00:12:44;;;;;;;;;;;;;;;;;;1032646;28;4093;-54
2023/03/24 00:13:15;;;;;;;;;;;;;;;;;;1035062;28;1777;-52
2023/03/24 00:13:48;;;;;;;;;;;;;;;;;;1032167;28;4054;-52
2023/03/24 00:14:18;;;;;;;;;;;;;;;;;;1035051;28;2998;-51
2023/03/24 00:14:49;;;;;;;;;;;;;;;;;;1033243;28;3874;-54
2023/03/24 00:15:20;;;;;;;;;;;;;;;;;;1031081;28;2776;-52
2023/03/24 00:15:50;;;;;;;;;;;;;;;;;;1029214;28;3852;-51
2023/03/24 00:16:20;;;;;;;;;;;;;;;;;;1035813;28;1599;-53
2023/03/24 00:16:51;;;;;;;;;;;;;;;;;;1032292;28;3833;-54
2023/03/24 00:17:24;;;;;;;;;;;;;;;;;;1033719;28;1957;-55
2023/03/24 00:17:57;;;;;;;;;;;;;;;;;;1033167;28;3948;-54
2023/03/24 00:18:29;;;;;;;;;;;;;;;;;;1030954;28;4033;-54
2023/03/24 00:18:59;;;;;;;;;;;;;;;;;;1031085;28;2815;-52
2023/03/24 00:19:32;;;;;;;;;;;;;;;;;;1034227;28;4080;-54
2023/03/24 00:20:14;;;;;;;;;;;;;;;;;;1031649;28;2833;-54
2023/03/24 00:20:44;;;;;;;;;;;;;;;;;;1033611;28;3942;-54
2023/03/24 00:21:15;;;;;;;;;;;;;;;;;;1033941;28;2612;-53
2023/03/24 00:21:45;;;;;;;;;;;;;;;;;;1036119;28;3940;-54
2023/03/24 00:22:15;;;;;;;;;;;;;;;;;;1036264;28;2556;-52
2023/03/24 00:22:49;;;;;;;;;;;;;;;;;;1038927;28;4093;-53
2023/03/24 00:23:21;;;;;;;;;;;;;;;;;;1037451;28;1882;-56
2023/03/24 00:23:53;;;;;;;;;;;;;;;;;;1038163;28;3993;-55
2023/03/24 00:24:24;;;;;;;;;;;;;;;;;;1039135;28;1915;-48
2023/03/24 00:24:54;;;;;;;;;;;;;;;;;;1036573;28;3780;-53
2023/03/24 00:25:35;;;;;;;;;;;;;;;;;;1034762;28;2456;-53
2023/03/24 00:26:07;;;;;;;;;;;;;;;;;;1038166;28;3911;-54
2023/03/24 00:26:39;;;;;;;;;;;;;;;;;;1035350;28;4052;-55
2023/03/24 00:27:12;;;;;;;;;;;;;;;;;;1038024;28;1871;-51
2023/03/24 00:27:43;;;;;;;;;;;;;;;;;;1035494;28;4018;-54
2023/03/24 00:28:15;;;;;;;;;;;;;;;;;;1034945;28;3113;-51
2023/03/24 00:28:46;;;;;;;;;;;;;;;;;;1038081;28;4056;-54
2023/03/24 00:29:17;;;;;;;;;;;;;;;;;;1037812;28;1790;-51
2023/03/24 00:29:48;;;;;;;;;;;;;;;;;;1037218;28;4129;-52
2023/03/24 00:30:18;;;;;;;;;;;;;;;;;;1034246;28;3014;-55
2023/03/24 00:30:52;;;;;;;;;;;;;;;;;;1038133;28;4109;-51
2023/03/24 00:31:23;;;;;;;;;;;;;;;;;;1036301;28;2724;-53
2023/03/24 00:31:53;;;;;;;;;;;;;;;;;;1036646;28;4062;-52
2023/03/24 00:32:24;;;;;;;;;;;;;;;;;;1034668;28;4715;-53
2023/03/24 00:32:57;;;;;;;;;;;;;;;;;;1038314;28;3940;-52
2023/03/24 00:33:31;;;;;;;;;;;;;;;;;;1036812;28;4058;-51
2023/03/24 00:34:02;;;;;;;;;;;;;;;;;;1035928;28;2116;-53
2023/03/24 00:34:33;;;;;;;;;;;;;;;;;;1034644;28;3966;-50
2023/03/24 00:35:11;;;;;;;;;;;;;;;;;;1038073;28;1961;-50
2023/03/24 00:35:43;;;;;;;;;;;;;;;;;;1036939;28;4093;-52
2023/03/24 00:36:13;;;;;;;;;;;;;;;;;;1037774;28;1640;-52
2023/03/24 00:36:44;;;;;;;;;;;;;;;;;;1035867;28;4047;-55
2023/03/24 00:37:14;;;;;;;;;;;;;;;;;;1032524;28;2892;-50
2023/03/24 00:37:45;;;;;;;;;;;;;;;;;;1031980;28;3872;-49
2023/03/24 00:38:15;;;;;;;;;;;;;;;;;;1038874;28;1427;-52
2023/03/24 00:38:48;;;;;;;;;;;;;;;;;;1037411;28;3909;-53
2023/03/24 00:39:19;;;;;;;;;;;;;;;;;;1038689;28;2147;-56
2023/03/24 00:39:49;;;;;;;;;;;;;;;;;;1038119;28;3877;-53
2023/03/24 00:40:20;;;;;;;;;;;;;;;;;;1037750;28;2718;-54
2023/03/24 00:40:51;;;;;;;;;;;;;;;;;;1034997;28;4114;-52
2023/03/24 00:41:25;;;;;;;;;;;;;;;;;;1036246;28;3022;-51
2023/03/24 00:41:57;;;;;;;;;;;;;;;;;;1038919;28;4051;-54
2023/03/24 00:42:28;;;;;;;;;;;;;;;;;;1035216;28;4169;-53
2023/03/24 00:42:58;;;;;;;;;;;;;;;;;;1038487;28;1857;-55
2023/03/24 00:43:29;;;;;;;;;;;;;;;;;;1038866;28;3973;-53
2023/03/24 00:44:02;;;;;;;;;;;;;;;;;;1035953;28;2740;-53
2023/03/24 00:44:33;;;;;;;;;;;;;;;;;;1037193;28;4076;-52
2023/03/24 00:45:04;;;;;;;;;;;;;;;;;;1036890;28;2898;-56
2023/03/24 00:45:34;;;;;;;;;;;;;;;;;;1035698;28;3975;-51
2023/03/24 00:46:06;;;;;;;;;;;;;;;;;;1034869;28;2900;-52
2023/03/24 00:46:37;;;;;;;;;;;;;;;;;;1036670;28;4046;-52
2023/03/24 00:47:09;;;;;;;;;;;;;;;;;;1038527;28;2826;-51
2023/03/24 00:47:40;;;;;;;;;;;;;;;;;;1037596;28;3910;-56
2023/03/24 00:48:11;;;;;;;;;;;;;;;;;;1038193;28;2317;-53
2023/03/24 00:48:42;;;;;;;;;;;;;;;;;;1037027;28;3762;-52
2023/03/24 00:49:14;;;;;;;;;;;;;;;;;;1038204;28;2786;-54
2023/03/24 00:49:44;;;;;;;;;;;;;;;;;;1035959;28;4050;-53
2023/03/24 00:50:16;;;;;;;;;;;;;;;;;;1036913;28;2799;-54
2023/03/24 00:50:47;;;;;;;;;;;;;;;;;;1038416;28;4243;-50
2023/03/24 00:51:17;;;;;;;;;;;;;;;;;;1036153;28;2536;-54
2023/03/24 00:51:47;;;;;;;;;;;;;;;;;;1036149;28;4027;-50
2023/03/24 00:52:19;;;;;;;;;;;;;;;;;;1038796;28;2078;-53
2023/03/24 00:52:49;;;;;;;;;;;;;;;;;;1039213;28;3768;-53
2023/03/24 00:53:22;;;;;;;;;;;;;;;;;;1037044;28;1917;-53
2023/03/24 00:53:56;;;;;;;;;;;;;;;;;;1037286;28;3978;-51
2023/03/24 00:54:29;;;;;;;;;;;;;;;;;;1037957;28;2450;-55
2023/03/24 00:55:01;;;;;;;;;;;;;;;;;;1035773;28;3666;-50
2023/03/24 00:55:32;;;;;;;;;;;;;;;;;;1036860;28;4206;-55
2023/03/24 00:56:03;;;;;;;;;;;;;;;;;;1038531;28;1662;-56
2023/03/24 00:56:36;;;;;;;;;;;;;;;;;;1036766;28;3828;-49
2023/03/24 00:57:07;;;;;;;;;;;;;;;;;;1037701;28;2819;-52
2023/03/24 00:57:39;;;;;;;;;;;;;;;;;;1035670;28;4068;-53
2023/03/24 00:58:09;;;;;;;;;;;;;;;;;;1037392;28;2972;-54
2023/03/24 00:58:40;;;;;;;;;;;;;;;;;;1034890;28;4069;-53
2023/03/24 00:59:12;;;;;;;;;;;;;;;;;;1032936;28;2797;-54
2023/03/24 00:59:47;;;;;;;;;;;;;;;;;;1034056;28;4051;-54
2023/03/24 01:00:22;;;;;;;;;;;;;;;;;;1033886;28;2840;-50
2023/03/24 01:00:54;;;;;;;;;;;;;;;;;;1035281;28;4201;-55
2023/03/24 01:01:26;;;;;;;;;;;;;;;;;;1032456;28;2974;-53
2023/03/24 01:01:56;;;;;;;;;;;;;;;;;;1033750;28;4100;-55
2023/03/24 01:02:27;;;;;;;;;;;;;;;;;;1034785;28;1841;-55
2023/03/24 01:02:58;;;;;;;;;;;;;;;;;;1031249;28;3633;-53
2023/03/24 01:03:28;;;;;;;;;;;;;;;;;;1034528;28;4063;-50
2023/03/24 01:03:59;;;;;;;;;;;;;;;;;;1034494;28;1440;-53
2023/03/24 01:04:29;;;;;;;;;;;;;;;;;;1031451;28;4078;-54
2023/03/24 01:05:01;;;;;;;;;;;;;;;;;;1035445;28;1819;-52
2023/03/24 01:05:31;;;;;;;;;;;;;;;;;;1033466;28;4039;-53
2023/03/24 01:06:03;;;;;;;;;;;;;;;;;;1033199;28;2699;-54
2023/03/24 01:06:37;;;;;;;;;;;;;;;;;;1035008;28;4190;-54
2023/03/24 01:07:09;;;;;;;;;;;;;;;;;;1033451;28;2957;-55
2023/03/24 01:07:40;;;;;;;;;;;;;;;;;;1034290;28;4137;-53
2023/03/24 01:08:11;;;;;;;;;;;;;;;;;;1033930;28;1938;-55
2023/03/24 01:08:42;;;;;;;;;;;;;;;;;;1033668;28;3868;-52
2023/03/24 01:09:12;;;;;;;;;;;;;;;;;;1032414;28;3413;-53
2023/03/24 01:09:50;;;;;;;;;;;;;;;;;;1033844;28;3907;-49
2023/03/24 01:10:25;;;;;;;;;;;;;;;;;;1034591;28;1928;-52
2023/03/24 01:10:56;;;;;;;;;;;;;;;;;;1032463;28;3862;-55
2023/03/24 01:11:27;;;;;;;;;;;;;;;;;;1033067;28;3135;-53
2023/03/24 01:11:57;;;;;;;;;;;;;;;;;;1032057;28;4652;-51
2023/03/24 01:12:33;;;;;;;;;;;;;;;;;;1031354;28;4274;-50
2023/03/24 01:13:04;;;;;;;;;;;;;;;;;;1034887;28;1700;-52
2023/03/24 01:13:34;;;;;;;;;;;;;;;;;;1031601;28;3888;-52
2023/03/24 01:14:05;;;;;;;;;;;;;;;;;;1036390;28;1449;-53
2023/03/24 01:14:36;;;;;;;;;;;;;;;;;;1033310;28;3959;-55
2023/03/24 01:15:14;;;;;;;;;;;;;;;;;;1033741;28;2835;-54
2023/03/24 01:15:44;;;;;;;;;;;;;;;;;;1034336;28;4403;-55
2023/03/24 01:16:15;;;;;;;;;;;;;;;;;;1034922;28;2657;-54
2023/03/24 01:16:45;;;;;;;;;;;;;;;;;;1033347;28;3784;-53
2023/03/24 01:17:18;;;;;;;;;;;;;;;;;;1032173;28;2873;-54
2023/03/24 01:17:48;;;;;;;;;;;;;;;;;;1032656;28;4016;-54
2023/03/24 01:18:19;;;;;;;;;;;;;;;;;;1034696;28;2885;-54
2023/03/24 01:18:49;;;;;;;;;;;;;;;;;;1033651;28;3879;-54
2023/03/24 01:19:19;;;;;;;;;;;;;;;;;;1034314;28;2402;-55
2023/03/24 01:19:50;;;;;;;;;;;;;;;;;;1031365;28;4060;-54
2023/03/24 01:20:22;;;;;;;;;;;;;;;;;;1033252;28;2361;-53
2023/03/24 01:20:52;;;;;;;;;;;;;;;;;;1028391;28;4033;-52
2023/03/24 01:21:24;;;;;;;;;;;;;;;;;;1030362;28;3268;-51
2023/03/24 01:21:54;;;;;;;;;;;;;;;;;;1030166;28;3971;-55
2023/03/24 01:22:28;;;;;;;;;;;;;;;;;;1033950;28;2114;-51
2023/03/24 01:22:59;;;;;;;;;;;;;;;;;;1034611;28;3955;-52
2023/03/24 01:23:30;;;;;;;;;;;;;;;;;;1033547;28;3992;-56
2023/03/24 01:24:00;;;;;;;;;;;;;;;;;;1033815;28;3015;-52
2023/03/24 01:24:31;;;;;;;;;;;;;;;;;;1031034;28;4009;-55
2023/03/24 01:25:01;;;;;;;;;;;;;;;;;;1032304;28;2042;-52
2023/03/24 01:25:32;;;;;;;;;;;;;;;;;;1033320;28;3872;-53
2023/03/24 01:26:06;;;;;;;;;;;;;;;;;;1032278;28;2788;-52
2023/03/24 01:26:37;;;;;;;;;;;;;;;;;;1032976;28;3903;-53
2023/03/24 01:27:07;;;;;;;;;;;;;;;;;;1032254;28;1828;-50
2023/03/24 01:27:37;;;;;;;;;;;;;;;;;;1033985;28;4113;-56
2023/03/24 01:28:08;;;;;;;;;;;;;;;;;;1032319;28;2841;-51
2023/03/24 01:28:39;;;;;;;;;;;;;;;;;;1033457;28;3908;-54
2023/03/24 01:29:10;;;;;;;;;;;;;;;;;;1034275;28;2903;-53
2023/03/24 01:29:41;;;;;;;;;;;;;;;;;;1031134;28;3891;-53
2023/03/24 01:30:12;;;;;;;;;;;;;;;;;;1029790;28;2784;-52
2023/03/24 01:30:43;;;;;;;;;;;;;;;;;;1030863;28;4105;-53
2023/03/24 01:31:13;;;;;;;;;;;;;;;;;;1034844;28;1717;-53
2023/03/24 01:31:43;;;;;;;;;;;;;;;;;;1032728;28;4071;-52
2023/03/24 01:32:14;;;;;;;;;;;;;;;;;;1034353;28;1837;-56
2023/03/24 01:32:44;;;;;;;;;;;;;;;;;;1034127;28;4026;-50
2023/03/24 01:33:14;;;;;;;;;;;;;;;;;;1034602;28;1673;-52
2023/03/24 01:33:45;;;;;;;;;;;;;;;;;;1033622;28;4445;-55
2023/03/24 01:34:15;;;;;;;;;;;;;;;;;;1033880;28;2340;-51
2023/03/24 01:34:45;;;;;;;;;;;;;;;;;;1033050;28;3792;-55
2023/03/24 01:35:16;;;;;;;;;;;;;;;;;;1033833;28;1581;-54
2023/03/24 01:35:46;;;;;;;;;;;;;;;;;;1033269;28;3792;-53
2023/03/24 01:36:16;;;;;;;;;;;;;;;;;;1031307;28;1880;-54
2023/03/24 01:36:47;;;;;;;;;;;;;;;;;;1032115;28;3876;-51
2023/03/24 01:37:17;;;;;;;;;;;;;;;;;;1034507;28;1669;-54
2023/03/24 01:37:48;;;;;;;;;;;;;;;;;;1034455;28;3950;-53
2023/03/24 01:38:18;;;;;;;;;;;;;;;;;;1032886;28;2228;-52
2023/03/24 01:38:49;;;;;;;;;;;;;;;;;;1032151;28;4020;-53
2023/03/24 01:39:19;;;;;;;;;;;;;;;;;;1034621;28;2145;-52
2023/03/24 01:39:50;;;;;;;;;;;;;;;;;;1034601;28;4077;-51
2023/03/24 01:40:22;;;;;;;;;;;;;;;;;;1034207;28;2233;-52
2023/03/24 01:40:54;;;;;;;;;;;;;;;;;;1034356;28;3806;-55
2023/03/24 01:41:25;;;;;;;;;;;;;;;;;;1032535;28;2491;-54
2023/03/24 01:41:56;;;;;;;;;;;;;;;;;;1034410;28;3705;-54
2023/03/24 01:42:27;;;;;;;;;;;;;;;;;;1032621;28;2560;-49
2023/03/24 01:42:57;;;;;;;;;;;;;;;;;;1034459;28;3978;-54
2023/03/24 01:43:30;;;;;;;;;;;;;;;;;;1034369;28;4063;-51
2023/03/24 01:44:00;;;;;;;;;;;;;;;;;;1033255;28;1808;-51
2023/03/24 01:44:32;;;;;;;;;;;;;;;;;;1033071;28;4118;-55
2023/03/24 01:45:21;;;;;;;;;;;;;;;;;;1031210;28;3017;-56
2023/03/24 01:46:00;;;;;;;;;;;;;;;;;;1033687;28;4207;-53
2023/03/24 01:46:33;;;;;;;;;;;;;;;;;;1033718;28;4066;-53
2023/03/24 01:47:05;;;;;;;;;;;;;;;;;;1032429;28;1969;-51
2023/03/24 01:47:36;;;;;;;;;;;;;;;;;;1034101;28;3870;-55
2023/03/24 01:48:18;;;;;;;;;;;;;;;;;;1031513;28;2657;-54
2023/03/24 01:48:50;;;;;;;;;;;;;;;;;;1034475;28;4433;-51
2023/03/24 01:49:22;;;;;;;;;;;;;;;;;;1032674;28;2928;-54
2023/03/24 01:49:55;;;;;;;;;;;;;;;;;;1033337;28;3736;-52
2023/03/24 01:50:26;;;;;;;;;;;;;;;;;;1031850;28;3045;-53
2023/03/24 01:51:10;;;;;;;;;;;;;;;;;;1032542;28;4003;-56
2023/03/24 01:51:45;;;;;;;;;;;;;;;;;;1029933;28;3939;-54
2023/03/24 01:52:34;;;;;;;;;;;;;;;;;;1031842;28;2840;-52
2023/03/24 01:53:06;;;;;;;;;;;;;;;;;;1032620;28;3745;-53
2023/03/24 01:53:38;;;;;;;;;;;;;;;;;;1033962;28;4053;-54
2023/03/24 01:54:17;;;;;;;;;;;;;;;;;;1033649;28;2136;-52
2023/03/24 01:54:51;;;;;;;;;;;;;;;;;;1031169;28;4227;-53
2023/03/24 01:55:22;;;;;;;;;;;;;;;;;;1033802;28;1769;-52
2023/03/24 01:55:53;;;;;;;;;;;;;;;;;;1033135;28;3840;-52
2023/03/24 01:56:24;;;;;;;;;;;;;;;;;;1031784;28;2837;-54
2023/03/24 01:56:56;;;;;;;;;;;;;;;;;;1031704;28;3901;-51
2023/03/24 01:57:34;;;;;;;;;;;;;;;;;;1033510;28;2157;-55
2023/03/24 01:58:06;;;;;;;;;;;;;;;;;;1031961;28;3928;-52
2023/03/24 01:58:38;;;;;;;;;;;;;;;;;;1033541;28;4022;-55
2023/03/24 01:59:10;;;;;;;;;;;;;;;;;;1033694;28;2793;-53
2023/03/24 01:59:47;;;;;;;;;;;;;;;;;;1033562;28;4488;-55
2023/03/24 02:00:19;;;;;;;;;;;;;;;;;;1032583;28;2792;-53
2023/03/24 02:00:50;;;;;;;;;;;;;;;;;;1032424;28;3852;-52
2023/03/24 02:01:20;;;;;;;;;;;;;;;;;;1033387;28;2906;-50
2023/03/24 02:01:53;;;;;;;;;;;;;;;;;;1032716;28;3892;-52
2023/03/24 02:02:24;;;;;;;;;;;;;;;;;;1030694;28;2716;-53
2023/03/24 02:02:57;;;;;;;;;;;;;;;;;;1033874;28;3863;-53
2023/03/24 02:03:32;;;;;;;;;;;;;;;;;;1033067;28;3915;-54
2023/03/24 02:04:04;;;;;;;;;;;;;;;;;;1031720;28;2717;-51
2023/03/24 02:04:37;;;;;;;;;;;;;;;;;;1032995;28;3904;-54
2023/03/24 02:05:10;;;;;;;;;;;;;;;;;;1033226;28;1851;-54
2023/03/24 02:05:44;;;;;;;;;;;;;;;;;;1031281;28;4851;-53
2023/03/24 02:06:15;;;;;;;;;;;;;;;;;;1032173;28;1719;-53
2023/03/24 02:06:45;;;;;;;;;;;;;;;;;;1031310;28;4058;-52
2023/03/24 02:07:27;;;;;;;;;;;;;;;;;;1032115;28;2758;-53
2023/03/24 02:08:06;;;;;;;;;;;;;;;;;;1032841;28;4024;-51
2023/03/24 02:08:42;;;;;;;;;;;;;;;;;;1031499;28;4130;-53
2023/03/24 02:09:13;;;;;;;;;;;;;;;;;;1031176;28;2745;-53
2023/03/24 02:09:43;;;;;;;;;;;;;;;;;;1032327;28;4035;-52
2023/03/24 02:10:15;;;;;;;;;;;;;;;;;;1033004;28;2657;-54
2023/03/24 02:10:46;;;;;;;;;;;;;;;;;;1032912;28;3935;-54
2023/03/24 02:11:16;;;;;;;;;;;;;;;;;;1033495;28;2506;-49
2023/03/24 02:11:46;;;;;;;;;;;;;;;;;;1033640;28;3796;-52
2023/03/24 02:12:17;;;;;;;;;;;;;;;;;;1031840;28;2895;-53
2023/03/24 02:12:47;;;;;;;;;;;;;;;;;;1033372;28;3976;-52
2023/03/24 02:13:17;;;;;;;;;;;;;;;;;;1035078;28;1693;-53
2023/03/24 02:13:48;;;;;;;;;;;;;;;;;;1031990;28;3905;-53
2023/03/24 02:14:18;;;;;;;;;;;;;;;;;;1033908;28;2928;-53
2023/03/24 02:14:49;;;;;;;;;;;;;;;;;;1033681;28;3786;-52
2023/03/24 02:15:19;;;;;;;;;;;;;;;;;;1032365;28;2683;-54
2023/03/24 02:15:52;;;;;;;;;;;;;;;;;;1033652;28;3981;-51
2023/03/24 02:16:22;;;;;;;;;;;;;;;;;;1032127;28;2813;-51
2023/03/24 02:16:59;;;;;;;;;;;;;;;;;;1034455;28;3957;-50
2023/03/24 02:17:36;;;;;;;;;;;;;;;;;;1033089;28;3882;-48
2023/03/24 02:18:17;;;;;;;;;;;;;;;;;;1032035;28;1776;-53
2023/03/24 02:18:48;;;;;;;;;;;;;;;;;;1032285;28;4127;-55
2023/03/24 02:19:37;;;;;;;;;;;;;;;;;;1032937;28;2759;-54
2023/03/24 02:20:13;;;;;;;;;;;;;;;;;;1033067;28;3684;-52
2023/03/24 02:20:53;;;;;;;;;;;;;;;;;;1032799;28;4069;-54
2023/03/24 02:21:38;;;;;;;;;;;;;;;;;;1033034;28;2814;-57
2023/03/24 02:22:19;;;;;;;;;;;;;;;;;;1032011;28;3963;-53
2023/03/24 02:23:14;;;;;;;;;;;;;;;;;;1033222;28;4028;-53
2023/03/24 02:24:03;;;;;;;;;;;;;;;;;;1031812;28;3891;-51
2023/03/24 02:24:36;;;;;;;;;;;;;;;;;;1030776;28;3975;-54
2023/03/24 02:25:21;;;;;;;;;;;;;;;;;;1034886;28;1908;-55
2023/03/24 02:26:10;;;;;;;;;;;;;;;;;;1033116;28;4386;-55
2023/03/24 02:26:51;;;;;;;;;;;;;;;;;;1031141;28;3948;-52
2023/03/24 02:27:44;;;;;;;;;;;;;;;;;;1030220;28;2813;-54
2023/03/24 02:28:18;;;;;;;;;;;;;;;;;;1030035;28;3799;-51
2023/03/24 02:29:06;;;;;;;;;;;;;;;;;;1033077;28;4215;-53
2023/03/24 02:29:46;;;;;;;;;;;;;;;;;;1031886;28;4066;-53
2023/03/24 02:30:19;;;;;;;;;;;;;;;;;;1030879;28;2681;-50
2023/03/24 02:31:07;;;;;;;;;;;;;;;;;;1034437;28;3893;-53
2023/03/24 02:31:46;;;;;;;;;;;;;;;;;;1033324;28;4072;-55
2023/03/24 02:32:28;;;;;;;;;;;;;;;;;;1029962;28;2817;-53
2023/03/24 02:33:17;;;;;;;;;;;;;;;;;;1031404;28;3919;-55
2023/03/24 02:33:47;;;;;;;;;;;;;;;;;;1032857;28;4032;-52
2023/03/24 02:34:23;;;;;;;;;;;;;;;;;;1033582;28;2850;-55
2023/03/24 02:34:54;;;;;;;;;;;;;;;;;;1031202;28;3946;-53
2023/03/24 02:35:44;;;;;;;;;;;;;;;;;;1033952;28;1796;-52
2023/03/24 02:36:42;;;;;;;;;;;;;;;;;;1033912;28;3869;-53
2023/03/24 02:37:31;;;;;;;;;;;;;;;;;;1033402;28;3947;-52
2023/03/24 02:38:04;;;;;;;;;;;;;;;;;;1030930;28;3872;-54
2023/03/24 02:38:53;;;;;;;;;;;;;;;;;;1033197;28;4081;-52
2023/03/24 02:39:47;;;;;;;;;;;;;;;;;;1034566;28;2190;-55
2023/03/24 02:40:21;;;;;;;;;;;;;;;;;;1033083;28;3848;-53
2023/03/24 02:40:54;;;;;;;;;;;;;;;;;;1032407;28;3804;-51
2023/03/24 02:41:27;;;;;;;;;;;;;;;;;;1033999;28;1811;-52
2023/03/24 02:42:01;;;;;;;;;;;;;;;;;;1035763;28;3696;-55
2023/03/24 02:42:40;;;;;;;;;;;;;;;;;;1034270;28;4645;-51
2023/03/24 02:43:27;;;;;;;;;;;;;;;;;;1037011;28;2364;-53
2023/03/24 02:44:21;;;;;;;;;;;;;;;;;;1035913;28;3903;-53
2023/03/24 02:45:00;;;;;;;;;;;;;;;;;;1030069;28;4381;-52
2023/03/24 02:45:30;;;;;;;;;;;;;;;;;;1031206;28;3864;-55
2023/03/24 02:46:00;;;;;;;;;;;;;;;;;;1037805;28;1950;-52
2023/03/24 02:46:30;;;;;;;;;;;;;;;;;;1038267;28;3792;-51
2023/03/24 02:47:04;;;;;;;;;;;;;;;;;;1038085;28;1785;-51
2023/03/24 02:47:43;;;;;;;;;;;;;;;;;;1034467;28;4099;-53
2023/03/24 02:48:13;;;;;;;;;;;;;;;;;;1035397;28;1822;-51
2023/03/24 02:49:06;;;;;;;;;;;;;;;;;;1035332;28;4078;-51
2023/03/24 02:49:43;;;;;;;;;;;;;;;;;;1036270;28;4263;-53
2023/03/24 02:50:21;;;;;;;;;;;;;;;;;;1036419;28;2673;-55
2023/03/24 02:51:06;;;;;;;;;;;;;;;;;;1035837;28;4026;-52
2023/03/24 02:51:42;;;;;;;;;;;;;;;;;;1034719;28;4062;-51
2023/03/24 02:52:31;;;;;;;;;;;;;;;;;;1035755;28;3492;-55
2023/03/24 02:53:07;;;;;;;;;;;;;;;;;;1036138;28;4013;-54
2023/03/24 02:53:56;;;;;;;;;;;;;;;;;;1035394;28;4125;-55
2023/03/24 02:54:36;;;;;;;;;;;;;;;;;;1037991;28;2042;-51
2023/03/24 02:55:12;;;;;;;;;;;;;;;;;;1037476;28;3851;-54
2023/03/24 02:55:51;;;;;;;;;;;;;;;;;;1038116;28;3866;-52
2023/03/24 02:56:21;;;;;;;;;;;;;;;;;;1038707;28;2728;-52
2023/03/24 02:57:10;;;;;;;;;;;;;;;;;;1037815;28;3896;-53
2023/03/24 02:57:43;;;;;;;;;;;;;;;;;;1036354;28;4118;-53
2023/03/24 02:58:34;;;;;;;;;;;;;;;;;;1037159;28;2979;-53
2023/03/24 02:59:06;;;;;;;;;;;;;;;;;;1036988;28;3907;-55
2023/03/24 02:59:39;;;;;;;;;;;;;;;;;;1036300;28;3909;-51
2023/03/24 03:00:17;;;;;;;;;;;;;;;;;;1035979;28;2079;-53
2023/03/24 03:00:47;;;;;;;;;;;;;;;;;;1038479;28;4069;-51
2023/03/24 03:01:30;;;;;;;;;;;;;;;;;;1036434;28;2888;-52
2023/03/24 03:02:03;;;;;;;;;;;;;;;;;;1036754;28;3938;-52
2023/03/24 03:02:36;;;;;;;;;;;;;;;;;;1036550;28;3940;-52
2023/03/24 03:03:12;;;;;;;;;;;;;;;;;;1038508;28;1389;-57
2023/03/24 03:03:47;;;;;;;;;;;;;;;;;;1037439;28;3889;-52
2023/03/24 03:04:21;;;;;;;;;;;;;;;;;;1037716;28;2868;-55
2023/03/24 03:04:56;;;;;;;;;;;;;;;;;;1039187;28;3786;-53
2023/03/24 03:05:27;;;;;;;;;;;;;;;;;;1038146;28;2754;-52
2023/03/24 03:06:00;;;;;;;;;;;;;;;;;;1039076;28;3761;-51
2023/03/24 03:06:32;;;;;;;;;;;;;;;;;;1039094;28;3802;-56
2023/03/24 03:07:08;;;;;;;;;;;;;;;;;;1038140;28;2822;-54
2023/03/24 03:07:40;;;;;;;;;;;;;;;;;;1038236;28;3839;-54
2023/03/24 03:08:13;;;;;;;;;;;;;;;;;;1037711;28;2518;-52
2023/03/24 03:08:46;;;;;;;;;;;;;;;;;;1039595;28;3882;-54
2023/03/24 03:09:18;;;;;;;;;;;;;;;;;;1037907;28;2419;-50
2023/03/24 03:09:54;;;;;;;;;;;;;;;;;;1038672;28;4044;-54
2023/03/24 03:10:34;;;;;;;;;;;;;;;;;;1035186;28;2769;-51
2023/03/24 03:11:06;;;;;;;;;;;;;;;;;;1036972;28;3873;-52
2023/03/24 03:11:38;;;;;;;;;;;;;;;;;;1035994;28;4119;-52
2023/03/24 03:12:11;;;;;;;;;;;;;;;;;;1037555;28;2817;-53
2023/03/24 03:12:43;;;;;;;;;;;;;;;;;;1038625;28;4005;-54
2023/03/24 03:13:29;;;;;;;;;;;;;;;;;;1038819;28;1809;-52
2023/03/24 03:14:01;;;;;;;;;;;;;;;;;;1036963;28;4134;-50
2023/03/24 03:14:40;;;;;;;;;;;;;;;;;;1038263;28;4082;-55
2023/03/24 03:15:33;;;;;;;;;;;;;;;;;;1033448;28;2774;-53
2023/03/24 03:16:06;;;;;;;;;;;;;;;;;;1034895;28;4043;-52
2023/03/24 03:16:39;;;;;;;;;;;;;;;;;;1033292;28;3952;-49
2023/03/24 03:17:21;;;;;;;;;;;;;;;;;;1035457;28;1667;-52
2023/03/24 03:18:13;;;;;;;;;;;;;;;;;;1034468;28;4012;-55
2023/03/24 03:18:53;;;;;;;;;;;;;;;;;;1035321;28;4050;-55
2023/03/24 03:19:38;;;;;;;;;;;;;;;;;;1032733;28;3096;-51
2023/03/24 03:20:14;;;;;;;;;;;;;;;;;;1036688;28;3867;-52
2023/03/24 03:20:49;;;;;;;;;;;;;;;;;;1039060;28;3880;-53
2023/03/24 03:21:21;;;;;;;;;;;;;;;;;;1037098;28;2643;-52
2023/03/24 03:21:53;;;;;;;;;;;;;;;;;;1038133;28;4064;-54
2023/03/24 03:22:26;;;;;;;;;;;;;;;;;;1037490;28;1892;-54
2023/03/24 03:23:01;;;;;;;;;;;;;;;;;;1038902;28;4067;-53
2023/03/24 03:23:34;;;;;;;;;;;;;;;;;;1038377;28;4072;-52
2023/03/24 03:24:06;;;;;;;;;;;;;;;;;;1037620;28;2593;-53
2023/03/24 03:24:39;;;;;;;;;;;;;;;;;;1037633;28;3982;-54
2023/03/24 03:25:10;;;;;;;;;;;;;;;;;;1036083;28;2380;-49
2023/03/24 03:25:49;;;;;;;;;;;;;;;;;;1035415;28;4088;-52
2023/03/24 03:26:22;;;;;;;;;;;;;;;;;;1037099;28;2619;-51
2023/03/24 03:27:01;;;;;;;;;;;;;;;;;;1037794;28;4054;-53
2023/03/24 03:27:37;;;;;;;;;;;;;;;;;;1037840;28;4979;-52
2023/03/24 03:28:09;;;;;;;;;;;;;;;;;;1037300;28;2891;-55
2023/03/24 03:28:42;;;;;;;;;;;;;;;;;;1037991;28;3798;-50
2023/03/24 03:29:16;;;;;;;;;;;;;;;;;;1039199;28;1931;-52
2023/03/24 03:29:49;;;;;;;;;;;;;;;;;;1035110;28;3946;-53
2023/03/24 03:30:25;;;;;;;;;;;;;;;;;;1037188;28;1795;-54
2023/03/24 03:30:57;;;;;;;;;;;;;;;;;;1037613;28;3986;-55
2023/03/24 03:31:33;;;;;;;;;;;;;;;;;;1037547;28;4238;-54
2023/03/24 03:32:08;;;;;;;;;;;;;;;;;;1037691;28;2654;-53
2023/03/24 03:32:42;;;;;;;;;;;;;;;;;;1037221;28;4068;-54
2023/03/24 03:33:24;;;;;;;;;;;;;;;;;;1038199;28;1969;-53
2023/03/24 03:33:58;;;;;;;;;;;;;;;;;;1034996;28;3928;-55
2023/03/24 03:34:34;;;;;;;;;;;;;;;;;;1037070;28;4468;-52
2023/03/24 03:35:21;;;;;;;;;;;;;;;;;;1038885;28;1697;-52
2023/03/24 03:35:55;;;;;;;;;;;;;;;;;;1036106;28;3890;-52
2023/03/24 03:36:28;;;;;;;;;;;;;;;;;;1039506;28;1538;-52
2023/03/24 03:37:16;;;;;;;;;;;;;;;;;;1037683;28;3839;-51
2023/03/24 03:37:59;;;;;;;;;;;;;;;;;;1035649;28;3935;-53
2023/03/24 03:38:37;;;;;;;;;;;;;;;;;;1037861;28;4096;-55
2023/03/24 03:39:07;;;;;;;;;;;;;;;;;;1037679;28;1587;-53
2023/03/24 03:39:44;;;;;;;;;;;;;;;;;;1037081;28;4050;-56
2023/03/24 03:40:18;;;;;;;;;;;;;;;;;;1037306;28;2318;-56
2023/03/24 03:40:50;;;;;;;;;;;;;;;;;;1035509;28;3891;-50
2023/03/24 03:41:21;;;;;;;;;;;;;;;;;;1037238;28;3000;-52
2023/03/24 03:41:52;;;;;;;;;;;;;;;;;;1038667;28;4086;-50
2023/03/24 03:42:22;;;;;;;;;;;;;;;;;;1037423;28;2250;-52
2023/03/24 03:42:52;;;;;;;;;;;;;;;;;;1038345;28;3952;-52
2023/03/24 03:43:23;;;;;;;;;;;;;;;;;;1038623;28;2060;-53
2023/03/24 03:43:53;;;;;;;;;;;;;;;;;;1036139;28;3844;-53
2023/03/24 03:44:24;;;;;;;;;;;;;;;;;;1033710;28;2608;-52
2023/03/24 03:44:54;;;;;;;;;;;;;;;;;;1038065;28;3780;-53
2023/03/24 03:45:25;;;;;;;;;;;;;;;;;;1037839;28;2238;-50
2023/03/24 03:45:55;;;;;;;;;;;;;;;;;;1039271;28;3926;-54
2023/03/24 03:46:26;;;;;;;;;;;;;;;;;;1039281;28;1760;-54
2023/03/24 03:46:56;;;;;;;;;;;;;;;;;;1036331;28;3968;-50
2023/03/24 03:47:26;;;;;;;;;;;;;;;;;;1039308;28;1852;-55
2023/03/24 03:47:57;;;;;;;;;;;;;;;;;;1038800;28;3952;-52
2023/03/24 03:48:28;;;;;;;;;;;;;;;;;;1037735;28;2678;-52
2023/03/24 03:48:58;;;;;;;;;;;;;;;;;;1037642;28;3608;-50
2023/03/24 03:49:28;;;;;;;;;;;;;;;;;;1038704;28;4052;-52
2023/03/24 03:49:59;;;;;;;;;;;;;;;;;;1037363;28;1903;-51
2023/03/24 03:50:30;;;;;;;;;;;;;;;;;;1038840;28;3820;-52
2023/03/24 03:51:00;;;;;;;;;;;;;;;;;;1037534;28;2382;-54
2023/03/24 03:51:32;;;;;;;;;;;;;;;;;;1039022;28;4163;-53
2023/03/24 03:52:02;;;;;;;;;;;;;;;;;;1037675;28;2813;-54
2023/03/24 03:52:33;;;;;;;;;;;;;;;;;;1038865;28;3883;-50
2023/03/24 03:53:04;;;;;;;;;;;;;;;;;;1037326;28;2815;-52
2023/03/24 03:53:54;;;;;;;;;;;;;;;;;;1037398;28;3894;-54
2023/03/24 03:54:27;;;;;;;;;;;;;;;;;;1035551;28;2563;-53
2023/03/24 03:54:58;;;;;;;;;;;;;;;;;;1038161;28;3989;-52
2023/03/24 03:55:28;;;;;;;;;;;;;;;;;;1037170;28;4239;-53